Sunday, October 22, 2017, 5:09 PM EDT
Back to Local

KJFK, Kennedy International Airport

Location: Rosedale, NY, United States Lat: 40.633
Local Time: 5:09 PM EDT (21:09 GMT) Lon: -73.767
Time Zone: US/Eastern Elev: 13 ft

Show me the last for .
Show Decoded

2017-10-22 16:51 METAR KJFK 222051Z 17010KT 10SM FEW180 BKN250 19/13 A3038 RMK AO2 SLP286
                 T01940128 56006 =
2017-10-22 15:51 METAR KJFK 221951Z 17009KT 10SM SCT200 BKN250 20/12 A3038 RMK AO2 SLP286
                 T02000122 =
2017-10-22 14:51 METAR KJFK 221851Z 17008KT 10SM FEW200 BKN250 22/11 A3039 RMK AO2 SLP290
                 T02170111 =
2017-10-22 13:51 METAR KJFK 221751Z 17008KT 10SM FEW200 BKN250 22/12 A3040 RMK AO2 SLP292
                 T02170117 10222 20117 58008 =
2017-10-22 12:51 METAR KJFK 221651Z 16007KT 10SM FEW200 BKN250 22/12 A3042 RMK AO2 SLP299
                 T02170117 =
2017-10-22 11:51 METAR KJFK 221551Z 16006KT 10SM FEW200 BKN250 22/11 A3042 RMK AO2 SLP301
                 T02170106 =
2017-10-22 10:51 METAR KJFK 221451Z 17003KT 10SM FEW200 BKN250 21/12 A3042 RMK AO2 SLP301
                 T02060117 50005 =
2017-10-22 09:51 METAR KJFK 221351Z 19003KT 10SM FEW200 BKN250 18/14 A3043 RMK AO2 SLP303
                 T01830139 =
2017-10-22 08:51 METAR KJFK 221251Z 00000KT 10SM FEW200 BKN250 16/13 A3042 RMK AO2 SLP302
                 T01560128 =
2017-10-22 07:51 METAR KJFK 221151Z 00000KT 10SM FEW200 BKN250 12/10 A3041 RMK AO2 SLP296
                 T01170100 10144 20094 53012 =
2017-10-22 06:51 METAR KJFK 221051Z 00000KT 10SM FEW250 11/09 A3039 RMK AO2 SLP292 T01060094 =
2017-10-22 05:51 METAR KJFK 220951Z 00000KT 10SM FEW250 11/09 A3038 RMK AO2 SLP286 T01060094 =
2017-10-22 04:51 METAR KJFK 220851Z 00000KT 10SM SCT250 11/09 A3037 RMK AO2 SLP284 T01060094
                 53001 =
2017-10-22 03:51 METAR KJFK 220751Z 00000KT 10SM FEW250 13/09 A3036 RMK AO2 SLP282 T01280094 =
2017-10-22 02:51 METAR KJFK 220651Z 23005KT 10SM FEW250 13/10 A3036 RMK AO2 SLP280 T01280100 =
2017-10-22 01:51 METAR KJFK 220551Z 24005KT 10SM FEW250 14/10 A3037 RMK AO2 SLP283 T01390100
                 10172 20133 53000 =
2017-10-22 00:51 METAR KJFK 220451Z 25003KT 10SM SCT250 15/12 A3037 RMK AO2 SLP283 T01500122
                 402440089 =
2017-10-21 23:51 METAR KJFK 220351Z 22006KT 10SM SCT250 14/11 A3037 RMK AO2 SLP282 T01390106 =
2017-10-21 22:51 METAR KJFK 220251Z 24005KT 10SM SCT250 15/12 A3037 RMK AO2 SLP283 T01500122
                 51005 =
2017-10-21 21:51 METAR KJFK 220151Z 23006KT 10SM SCT250 16/12 A3036 RMK AO2 SLP282 T01560122 =
2017-10-21 20:51 METAR KJFK 220051Z 21007KT 10SM SCT250 17/14 A3036 RMK AO2 SLP279 T01670144 =
2017-10-21 19:51 METAR KJFK 212351Z 19008KT 10SM BKN250 17/14 A3035 RMK AO2 SLP278 T01720139
                 10244 20172 51009 =
2017-10-21 18:51 METAR KJFK 212251Z 19008KT 10SM BKN250 17/12 A3035 RMK AO2 SLP275 T01720117 =
2017-10-21 17:51 METAR KJFK 212151Z 19009KT 10SM BKN250 18/09 A3033 RMK AO2 SLP271 T01830094 =

Support USWX by starting your Amazon purchase here.